Airfield :
LOGIN :

Register | Disclaimer

   EN    FR    IT 

 










Legend :    VFR   Marginal VFR   IFR   Intensive IFR   Very Intensive IFR
Visi :
Ceiling :
>= 8 km
>= 3000ft
5 to 8 km
1000 to 3000 ft
1500m to 5 km
500 to 1000 ft
800 to 1500m
200 to 500 ft
< 800m
< 200 ft
Symbols :   Thunderstorms  Fog  Heavy snow  Heavy precipitations  Wind > 20 kt
SIGMETs :     Misc.  Thunderstorms  Icing  Turbulence  Mountain Waves  Volcanic Ashes







- Airport Elevation : 12 ft
- IATA code : BCN


LEBL - Barcelone

CURRENT METAR :
  • 202000Z VRB01KT CAVOK 16/11 Q1022 TEMPO 0800 BCFG BKN005

EXPIRED METARs :
  • 201930Z VRB01KT CAVOK 16/13 Q1022 NOSIG
  • 201900Z VRB02KT CAVOK 17/12 Q1022 NOSIG
  • 201830Z VRB02KT CAVOK 17/12 Q1022 NOSIG
  • 201800Z 16003KT 130V190 CAVOK 18/11 Q1022 NOSIG
  • 201730Z 17005KT 140V210 CAVOK 18/10 Q1021 NOSIG

TAF TAF LEBL
Valid from the 20 at 18:00 until the 21 at 18:00 UTC


201700Z 2018/2118 09008KT 9999 FEW040 TX21/2112Z TN12/2106Z
BECMG 2020/2023 33005KT
PROB40
TEMPO 2019/2108 3000 BR BKN008
PROB30
TEMPO 2020/2107 0300 BCFG VV005
PROB30
TEMPO 2107/2118 3000 BR
BECMG 2109/2111 20009KT
No reported NOTAMs for that airfield.



MET'MAP, your aeronautical weather chart ! - Copyright ORBIFLY December 2007 - Disclaimer

ORBIFLY MET'MAP TEAM :

Programming & Development : Alexandra Zaïnal
Concept & Development : Baudouin d'Aumeries
Co-Development & Prog : Marc-Olivier Méhu
Technical & hardware support : Manuel Goepfert

Contact : metmap@orbifly.com




SOURCES & CREDITS :

   NOAA